aviador You're here:

PAIK Decoded Metar

in _UNIDENTIFIED
Report Time2017-12-16 02:56:00
UTC Time2017-12-16 03:29:58
Flight Rules vfr VFR
WindVRB at 03 kt
Visibility9999 m
Phenomena:Light Snow
Clouds:N/A
Expected CloudBase > 400 ft AGL from Temp-Dew spread
CeilingNone
Temp-16°C (ISA -31)
Dew Point-17°C (92% RH)
AAT-20.5°C
QNH995 hPa
Density Alt-3,071 ft
Elevation167 ft
Report Wrong Elevation
Raw Report
PAIK 160256Z AUTO VRB03KT 8SM -SN CLR M16/M17 A2938 RMK AO2 SLP956
P0000 60000 T11611172 56026 FZRANO=

Extra information for PAIK:More info

Metar Taf Metar & Taf Last 4 Metars F.Rules Stats Wind Profile Meteogram Temp Stats Metar ALERT Operation Metar Decoded Social comments